Time;durP1;ratioP1;P1;durP2;ratioP2;P2;SDS_P1;SDS_P2;PMS_P1;PMS_P2;Temp;Humidity;BMP_temperature;BMP_pressure;BME280_temperature;BME280_humidity;BME280_pressure;Samples;Min_cycle;Max_cycle;Signal;HPM_P1;HPM_P2
2022/01/09 00:01:27;;;;;;;0.20;0.20;;;7.70;99.90;;;;;;5049891;28;20758;-61
2022/01/09 00:03:54;;;;;;;0.37;0.37;;;7.70;99.90;;;;;;5047127;28;20204;-61
2022/01/09 00:06:21;;;;;;;0.30;0.30;;;7.70;99.90;;;;;;5047309;28;20311;-61
2022/01/09 00:08:48;;;;;;;0.20;0.20;;;7.70;99.90;;;;;;5044522;28;20683;-61
2022/01/09 00:11:17;;;;;;;0.27;0.27;;;7.70;99.90;;;;;;5059885;28;20298;-61
2022/01/09 00:13:47;;;;;;;0.30;0.30;;;7.80;99.90;;;;;;5060387;28;20206;-62
2022/01/09 00:16:15;;;;;;;0.10;0.10;;;7.80;99.90;;;;;;5063331;28;20227;-60
2022/01/09 00:18:42;;;;;;;0.20;0.20;;;7.90;99.90;;;;;;5060944;28;20192;-61
2022/01/09 00:21:10;;;;;;;0.20;0.20;;;7.90;99.90;;;;;;5062432;28;20240;-62
2022/01/09 00:23:37;;;;;;;0.30;0.30;;;7.90;99.90;;;;;;5052786;28;20294;-61
2022/01/09 00:26:06;;;;;;;0.30;0.30;;;7.90;99.90;;;;;;5045264;28;20307;-61
2022/01/09 00:28:33;;;;;;;0.20;0.20;;;8.00;99.90;;;;;;5050666;28;20235;-61
2022/01/09 00:31:00;;;;;;;0.30;0.30;;;8.00;99.90;;;;;;5061454;28;20267;-61
2022/01/09 00:33:29;;;;;;;0.20;0.20;;;7.90;99.90;;;;;;5054346;28;20200;-61
2022/01/09 00:35:56;;;;;;;0.20;0.20;;;7.90;99.90;;;;;;5051428;28;20322;-62
2022/01/09 00:38:23;;;;;;;0.20;0.20;;;7.90;99.90;;;;;;5048894;28;20232;-62
2022/01/09 00:40:50;;;;;;;0.20;0.20;;;8.00;99.90;;;;;;5053423;28;20311;-61
2022/01/09 00:43:16;;;;;;;0.30;0.30;;;8.00;99.90;;;;;;5055898;28;20290;-61
2022/01/09 00:45:43;;;;;;;0.20;0.20;;;8.10;99.90;;;;;;5052237;28;20603;-61
2022/01/09 00:48:11;;;;;;;0.27;0.27;;;8.10;99.90;;;;;;5047658;28;20221;-61
2022/01/09 00:50:40;;;;;;;0.23;0.23;;;8.10;99.90;;;;;;5052655;28;20214;-61
2022/01/09 00:53:07;;;;;;;0.20;0.20;;;8.10;99.90;;;;;;5051903;28;20204;-61
2022/01/09 00:55:34;;;;;;;0.20;0.20;;;8.20;99.90;;;;;;5051603;28;20223;-61
2022/01/09 00:58:01;;;;;;;0.20;0.20;;;8.20;99.90;;;;;;5051762;28;20196;-61
2022/01/09 01:00:28;;;;;;;0.20;0.20;;;8.20;99.90;;;;;;5051532;28;20207;-61
2022/01/09 01:02:55;;;;;;;0.20;0.20;;;8.30;99.90;;;;;;5050880;28;20226;-61
2022/01/09 01:05:22;;;;;;;0.20;0.20;;;8.30;99.90;;;;;;5050818;28;20220;-61
2022/01/09 01:07:50;;;;;;;0.30;0.30;;;8.30;99.90;;;;;;5050343;28;20296;-61
2022/01/09 01:10:17;;;;;;;0.20;0.20;;;8.30;99.90;;;;;;5049055;28;20786;-62
2022/01/09 01:12:44;;;;;;;0.27;0.27;;;8.40;99.90;;;;;;5050700;28;20212;-62
2022/01/09 01:15:12;;;;;;;0.20;0.20;;;8.30;99.90;;;;;;5048666;28;20216;-61
2022/01/09 01:17:39;;;;;;;0.30;0.30;;;8.30;99.90;;;;;;5048610;28;20196;-62
2022/01/09 01:20:08;;;;;;;0.20;0.20;;;8.40;99.90;;;;;;5049785;28;20207;-63
2022/01/09 01:22:35;;;;;;;0.20;0.20;;;8.40;99.90;;;;;;5047973;28;20679;-62
2022/01/09 01:25:05;;;;;;;0.30;0.30;;;8.40;99.90;;;;;;5050863;28;20243;-62
2022/01/09 01:27:32;;;;;;;0.20;0.20;;;8.40;99.90;;;;;;5048827;28;20631;-62
2022/01/09 01:29:59;;;;;;;0.20;0.20;;;8.40;99.90;;;;;;5050718;28;20227;-61
2022/01/09 01:32:26;;;;;;;0.30;0.30;;;8.40;99.90;;;;;;5050256;28;20222;-61
2022/01/09 01:34:53;;;;;;;0.27;0.27;;;8.40;99.90;;;;;;5054012;28;20295;-62
2022/01/09 01:37:20;;;;;;;0.30;0.30;;;8.40;99.90;;;;;;5054313;28;20199;-61
2022/01/09 01:39:47;;;;;;;0.10;0.10;;;8.40;99.90;;;;;;5054204;28;20299;-61
2022/01/09 01:42:16;;;;;;;0.20;0.20;;;8.40;99.90;;;;;;5048517;28;20644;-65
2022/01/09 01:44:45;;;;;;;0.20;0.20;;;8.50;99.90;;;;;;5041712;28;20279;-62
2022/01/09 01:47:12;;;;;;;0.20;0.20;;;8.50;99.90;;;;;;5045193;28;20230;-62
2022/01/09 01:49:39;;;;;;;0.20;0.20;;;8.50;99.90;;;;;;5044397;28;20251;-61
2022/01/09 01:52:06;;;;;;;0.20;0.20;;;8.50;99.90;;;;;;5045239;28;20209;-62
2022/01/09 01:54:33;;;;;;;0.20;0.20;;;8.60;99.90;;;;;;5041837;28;20292;-62
2022/01/09 01:57:01;;;;;;;0.30;0.30;;;8.60;99.90;;;;;;5043997;28;20224;-62
2022/01/09 01:59:29;;;;;;;0.20;0.20;;;8.60;99.90;;;;;;5043837;28;20199;-62
2022/01/09 02:01:56;;;;;;;0.20;0.20;;;8.60;99.90;;;;;;5042542;28;20207;-61
2022/01/09 02:04:22;;;;;;;0.20;0.20;;;8.60;99.90;;;;;;5049518;28;20667;-62
2022/01/09 02:06:49;;;;;;;0.20;0.20;;;8.60;99.90;;;;;;5048036;28;20303;-63
2022/01/09 02:09:17;;;;;;;0.30;0.30;;;8.60;99.90;;;;;;5055861;28;20766;-61
2022/01/09 02:11:45;;;;;;;0.10;0.10;;;8.60;99.90;;;;;;5061091;28;20227;-61
2022/01/09 02:14:12;;;;;;;0.30;0.30;;;8.60;99.90;;;;;;5059077;28;20219;-61
2022/01/09 02:16:42;;;;;;;0.30;0.30;;;8.70;99.90;;;;;;5056227;28;20315;-62
2022/01/09 02:19:13;;;;;;;0.20;0.20;;;8.60;99.90;;;;;;5062546;28;20200;-61
2022/01/09 02:21:42;;;;;;;0.20;0.20;;;8.60;99.90;;;;;;5049231;28;20197;-61
2022/01/09 02:24:09;;;;;;;0.20;0.20;;;8.60;99.90;;;;;;5052494;28;20204;-62
2022/01/09 02:26:36;;;;;;;0.20;0.20;;;8.60;99.90;;;;;;5046737;28;20224;-63
2022/01/09 02:29:04;;;;;;;0.27;0.27;;;8.60;99.90;;;;;;5051002;28;20222;-62
2022/01/09 02:31:32;;;;;;;0.27;0.27;;;8.60;99.90;;;;;;5045545;28;20214;-61
2022/01/09 02:33:59;;;;;;;0.30;0.30;;;8.60;99.90;;;;;;5033456;28;20247;-62
2022/01/09 02:36:26;;;;;;;0.30;0.30;;;8.60;99.90;;;;;;5034065;28;20307;-62
2022/01/09 02:38:54;;;;;;;0.30;0.30;;;8.60;99.90;;;;;;5041222;28;20239;-61
2022/01/09 02:41:21;;;;;;;0.30;0.30;;;8.60;99.90;;;;;;5044944;28;20227;-60
2022/01/09 02:43:48;;;;;;;0.20;0.20;;;8.60;99.90;;;;;;5051301;28;20208;-61
2022/01/09 02:46:17;;;;;;;0.20;0.20;;;8.60;99.90;;;;;;5050138;28;20223;-62
2022/01/09 02:48:45;;;;;;;0.38;0.38;;;8.60;99.90;;;;;;5053078;28;20660;-61
2022/01/09 02:51:14;;;;;;;0.30;0.30;;;8.70;99.90;;;;;;5052012;28;20543;-61
2022/01/09 02:53:44;;;;;;;0.30;0.30;;;8.60;99.90;;;;;;5042470;28;20203;-62
2022/01/09 02:56:13;;;;;;;0.20;0.20;;;8.60;99.90;;;;;;5046414;28;20236;-62
2022/01/09 02:58:44;;;;;;;0.30;0.30;;;8.60;99.90;;;;;;5042762;28;20197;-62
2022/01/09 03:01:13;;;;;;;0.20;0.20;;;8.60;99.90;;;;;;5045793;28;20228;-62
2022/01/09 03:03:40;;;;;;;0.10;0.10;;;8.60;99.90;;;;;;5042100;28;20211;-61
2022/01/09 03:06:07;;;;;;;0.33;0.33;;;8.60;99.90;;;;;;5045549;28;20311;-62
2022/01/09 03:08:35;;;;;;;0.20;0.20;;;8.60;99.90;;;;;;5045105;28;20583;-60
2022/01/09 03:11:01;;;;;;;0.20;0.20;;;8.50;99.90;;;;;;5050744;28;20279;-63
2022/01/09 03:13:32;;;;;;;0.27;0.27;;;8.50;99.90;;;;;;5048052;28;20761;-61
2022/01/09 03:15:59;;;;;;;0.20;0.20;;;8.50;99.90;;;;;;5046527;28;20220;-63
2022/01/09 03:18:26;;;;;;;0.20;0.20;;;8.40;99.90;;;;;;5053720;28;20305;-62
2022/01/09 03:20:53;;;;;;;0.20;0.20;;;8.30;99.90;;;;;;5055499;28;20254;-63
2022/01/09 03:23:19;;;;;;;0.30;0.30;;;8.10;99.90;;;;;;5049136;28;20641;-63
2022/01/09 03:25:46;;;;;;;0.33;0.33;;;8.00;99.90;;;;;;5045118;28;20292;-62
2022/01/09 03:28:13;;;;;;;0.20;0.20;;;7.90;99.90;;;;;;5049651;28;20231;-62
2022/01/09 03:30:42;;;;;;;0.30;0.30;;;7.70;99.90;;;;;;5044348;28;20201;-62
2022/01/09 03:33:09;;;;;;;0.17;0.17;;;7.60;99.90;;;;;;5046837;28;20665;-62
2022/01/09 03:35:35;;;;;;;0.30;0.30;;;7.60;99.90;;;;;;5046539;28;20750;-61
2022/01/09 03:38:02;;;;;;;0.27;0.27;;;7.50;99.90;;;;;;5045486;28;20200;-63
2022/01/09 03:40:29;;;;;;;0.20;0.20;;;7.50;99.90;;;;;;5051530;28;20195;-61
2022/01/09 03:42:57;;;;;;;0.23;0.23;;;7.40;99.90;;;;;;5044085;28;20215;-63
2022/01/09 03:45:25;;;;;;;0.30;0.30;;;7.30;99.90;;;;;;5048178;28;20322;-61
2022/01/09 03:47:54;;;;;;;0.30;0.30;;;7.30;99.90;;;;;;5044992;28;20598;-61
2022/01/09 03:50:21;;;;;;;0.10;0.10;;;7.30;99.90;;;;;;5050489;28;20219;-62
2022/01/09 03:52:49;;;;;;;0.30;0.30;;;7.10;99.90;;;;;;5045880;28;20929;-61
2022/01/09 03:55:19;;;;;;;0.30;0.30;;;7.10;99.90;;;;;;5050965;28;20241;-61
2022/01/09 03:57:46;;;;;;;0.30;0.30;;;7.00;99.90;;;;;;5046183;28;20205;-63
2022/01/09 04:00:16;;;;;;;0.20;0.20;;;6.80;99.90;;;;;;5051802;28;20634;-62
2022/01/09 04:02:44;;;;;;;0.30;0.30;;;6.70;99.90;;;;;;5049636;28;20243;-63
2022/01/09 04:05:13;;;;;;;0.20;0.20;;;6.50;99.90;;;;;;5053965;28;20231;-62
2022/01/09 04:07:39;;;;;;;0.23;0.23;;;6.40;99.90;;;;;;5052850;28;20271;-61
2022/01/09 04:10:07;;;;;;;0.20;0.20;;;6.20;99.90;;;;;;5051342;28;20242;-61
2022/01/09 04:12:36;;;;;;;0.30;0.30;;;6.10;99.90;;;;;;5048797;28;20208;-61
2022/01/09 04:15:06;;;;;;;0.30;0.30;;;6.00;99.90;;;;;;5049789;28;20220;-63
2022/01/09 04:17:43;;;;;;;0.20;0.20;;;6.00;99.90;;;;;;5057472;28;20259;-62
2022/01/09 04:20:13;;;;;;;0.33;0.33;;;5.90;99.90;;;;;;5067903;28;20600;-63
2022/01/09 04:22:40;;;;;;;0.30;0.30;;;5.90;99.90;;;;;;5078121;28;20271;-62
2022/01/09 04:25:09;;;;;;;0.20;0.20;;;5.90;99.90;;;;;;5078175;28;20214;-60
2022/01/09 04:27:36;;;;;;;0.20;0.20;;;5.80;99.90;;;;;;5079047;28;20298;-61
2022/01/09 04:30:04;;;;;;;0.20;0.20;;;5.80;99.90;;;;;;5079080;28;20227;-62
2022/01/09 04:32:31;;;;;;;0.30;0.30;;;5.90;99.90;;;;;;5078705;28;20199;-60
2022/01/09 04:34:58;;;;;;;0.30;0.30;;;5.80;99.90;;;;;;5077378;28;20211;-60
2022/01/09 04:37:27;;;;;;;0.20;0.20;;;5.80;99.90;;;;;;5076176;28;20748;-61
2022/01/09 04:39:54;;;;;;;0.20;0.20;;;5.80;99.90;;;;;;5076252;28;20200;-63
2022/01/09 04:42:27;;;;;;;0.20;0.20;;;5.90;99.90;;;;;;5075137;28;20265;-62
2022/01/09 04:44:54;;;;;;;0.30;0.30;;;5.90;99.90;;;;;;5076568;28;20198;-62
2022/01/09 04:47:21;;;;;;;0.20;0.20;;;5.80;99.90;;;;;;5077651;28;20203;-61
2022/01/09 04:49:49;;;;;;;0.20;0.20;;;5.90;99.90;;;;;;5079390;28;20291;-62
2022/01/09 04:52:19;;;;;;;0.20;0.20;;;5.80;99.90;;;;;;5076723;28;20665;-63
2022/01/09 04:54:48;;;;;;;0.20;0.20;;;5.90;99.90;;;;;;5077176;28;20243;-60
2022/01/09 04:57:15;;;;;;;0.20;0.20;;;5.90;99.90;;;;;;5077022;28;20250;-60
2022/01/09 04:59:41;;;;;;;0.20;0.20;;;5.90;99.90;;;;;;5076726;28;20223;-60
2022/01/09 05:02:08;;;;;;;0.20;0.20;;;5.90;99.90;;;;;;5076663;28;20383;-62
2022/01/09 05:04:35;;;;;;;0.27;0.27;;;5.90;99.90;;;;;;5074064;28;20207;-63
2022/01/09 05:07:02;;;;;;;0.23;0.23;;;5.80;99.90;;;;;;5075035;28;20744;-63
2022/01/09 05:09:29;;;;;;;0.20;0.20;;;5.70;99.90;;;;;;5076101;28;20269;-62
2022/01/09 05:11:57;;;;;;;0.20;0.20;;;5.90;99.90;;;;;;5076690;28;20209;-61
2022/01/09 05:14:24;;;;;;;0.30;0.30;;;5.70;99.90;;;;;;5075977;28;20203;-61
2022/01/09 05:16:51;;;;;;;0.20;0.20;;;5.70;99.90;;;;;;5075875;28;20342;-60
2022/01/09 05:19:20;;;;;;;0.20;0.20;;;5.80;99.90;;;;;;5064529;28;20658;-61
2022/01/09 05:21:48;;;;;;;0.13;0.13;;;5.70;99.90;;;;;;5035829;28;20625;-60
2022/01/09 05:24:16;;;;;;;0.30;0.30;;;5.70;99.90;;;;;;5035214;28;20299;-61
2022/01/09 05:26:43;;;;;;;0.83;0.30;;;5.70;99.90;;;;;;5035168;28;20224;-61
2022/01/09 05:29:11;;;;;;;0.20;0.20;;;5.60;99.90;;;;;;5038424;28;20224;-62
2022/01/09 05:31:39;;;;;;;0.20;0.20;;;5.60;99.90;;;;;;5038157;28;20307;-62
2022/01/09 05:34:06;;;;;;;0.30;0.30;;;5.50;99.90;;;;;;5040955;28;20247;-61
2022/01/09 05:36:33;;;;;;;0.28;0.28;;;5.50;99.90;;;;;;5041865;28;20334;-61
2022/01/09 05:39:00;;;;;;;0.20;0.20;;;5.40;99.90;;;;;;5040916;28;20750;-61
2022/01/09 05:41:27;;;;;;;0.20;0.20;;;5.40;99.90;;;;;;5040954;28;20307;-60
2022/01/09 05:43:54;;;;;;;0.27;0.27;;;5.30;99.90;;;;;;5040603;28;20236;-61
2022/01/09 05:46:22;;;;;;;0.20;0.20;;;5.20;99.90;;;;;;5041621;28;20326;-63
2022/01/09 05:48:49;;;;;;;0.20;0.20;;;5.20;99.90;;;;;;5041395;28;20193;-62
2022/01/09 05:51:16;;;;;;;0.20;0.20;;;5.30;99.90;;;;;;5043277;28;20312;-60
2022/01/09 05:53:44;;;;;;;0.20;0.20;;;5.30;99.90;;;;;;5044653;28;20303;-60
2022/01/09 05:56:10;;;;;;;0.20;0.20;;;5.40;99.90;;;;;;5046176;28;20300;-61
2022/01/09 05:58:39;;;;;;;0.20;0.20;;;5.40;99.90;;;;;;5044638;28;20331;-61
2022/01/09 06:01:08;;;;;;;0.30;0.30;;;5.40;99.90;;;;;;5036308;28;20300;-62
2022/01/09 06:03:36;;;;;;;0.30;0.30;;;5.40;99.90;;;;;;5034404;28;20212;-63
2022/01/09 06:06:03;;;;;;;0.20;0.20;;;5.40;99.90;;;;;;5034064;28;20229;-62
2022/01/09 06:08:30;;;;;;;0.30;0.30;;;5.30;99.90;;;;;;5033845;28;20291;-62
2022/01/09 06:10:57;;;;;;;0.23;0.23;;;5.20;99.90;;;;;;5033902;28;20247;-63
2022/01/09 06:13:24;;;;;;;0.20;0.20;;;5.20;99.90;;;;;;5033452;28;20222;-63
2022/01/09 06:15:51;;;;;;;0.20;0.20;;;5.20;99.90;;;;;;5033956;28;20252;-63
2022/01/09 06:18:19;;;;;;;0.20;0.20;;;5.20;99.90;;;;;;5052500;22;20296;-65
2022/01/09 06:20:48;;;;;;;0.30;0.30;;;5.10;99.90;;;;;;5065447;28;20196;-66
2022/01/09 06:23:19;;;;;;;0.30;0.30;;;5.10;99.90;;;;;;5068993;28;20207;-67
2022/01/09 06:25:46;;;;;;;0.40;0.40;;;5.10;99.90;;;;;;5055725;28;20279;-65
2022/01/09 06:28:13;;;;;;;0.30;0.30;;;5.20;99.90;;;;;;5054891;28;20259;-66
2022/01/09 06:30:40;;;;;;;0.25;0.25;;;5.30;99.90;;;;;;5054401;28;20703;-66
2022/01/09 06:33:07;;;;;;;0.20;0.20;;;5.40;99.90;;;;;;5054338;28;20647;-67
2022/01/09 06:35:34;;;;;;;0.20;0.20;;;5.50;99.90;;;;;;5053364;28;20227;-66
2022/01/09 06:38:03;;;;;;;0.30;0.30;;;5.50;99.90;;;;;;5039551;28;20258;-66
2022/01/09 06:40:30;;;;;;;0.30;0.30;;;5.60;99.90;;;;;;5052208;28;20209;-66
2022/01/09 06:42:57;;;;;;;0.30;0.30;;;5.50;99.90;;;;;;5050380;28;20246;-64
2022/01/09 06:45:25;;;;;;;0.40;0.40;;;5.50;99.90;;;;;;5051756;28;20251;-65
2022/01/09 06:47:52;;;;;;;0.30;0.30;;;5.50;99.90;;;;;;5034812;28;20311;-65
2022/01/09 06:50:19;;;;;;;0.30;0.30;;;5.60;99.90;;;;;;5034665;28;20620;-65
2022/01/09 06:52:46;;;;;;;0.30;0.30;;;5.60;99.90;;;;;;5034575;28;20212;-66
2022/01/09 06:55:15;;;;;;;0.30;0.30;;;5.60;99.90;;;;;;5046327;28;20228;-66
2022/01/09 06:57:42;;;;;;;0.30;0.30;;;5.70;99.90;;;;;;5048585;28;20208;-65
2022/01/09 07:00:11;;;;;;;0.30;0.30;;;5.70;99.90;;;;;;5040599;28;20291;-63
2022/01/09 07:02:38;;;;;;;0.30;0.30;;;5.70;99.90;;;;;;5051521;28;20227;-65
2022/01/09 07:05:06;;;;;;;0.30;0.30;;;5.70;99.90;;;;;;5063561;28;20208;-64
2022/01/09 07:07:33;;;;;;;0.33;0.33;;;5.70;99.90;;;;;;5048757;28;20284;-65
2022/01/09 07:10:00;;;;;;;0.60;0.60;;;5.60;99.90;;;;;;5051608;28;20220;-64
2022/01/09 07:12:28;;;;;;;0.60;0.60;;;5.50;99.90;;;;;;5041397;28;20241;-64
2022/01/09 07:14:55;;;;;;;0.47;0.47;;;5.40;99.90;;;;;;5050278;28;20238;-65
2022/01/09 07:17:22;;;;;;;0.50;0.50;;;5.40;99.90;;;;;;5042157;28;20295;-64
2022/01/09 07:19:48;;;;;;;0.55;0.55;;;5.30;99.90;;;;;;5048567;28;20308;-65
2022/01/09 07:22:15;;;;;;;0.75;0.75;;;5.20;99.90;;;;;;5046863;28;20271;-65
2022/01/09 07:24:42;;;;;;;0.30;0.30;;;5.20;99.90;;;;;;5042610;28;20287;-64
2022/01/09 07:27:09;;;;;;;0.50;0.50;;;5.20;99.90;;;;;;5042521;28;20644;-67
2022/01/09 07:29:38;;;;;;;0.40;0.40;;;5.30;99.90;;;;;;5046675;28;20737;-66
2022/01/09 07:32:05;;;;;;;0.45;0.45;;;5.40;99.90;;;;;;5045124;28;20246;-65
2022/01/09 07:34:32;;;;;;;0.50;0.50;;;5.30;99.90;;;;;;5047133;28;20223;-65
2022/01/09 07:36:59;;;;;;;0.70;0.70;;;5.30;99.90;;;;;;5045832;28;20286;-65
2022/01/09 07:39:27;;;;;;;0.60;0.60;;;5.20;99.90;;;;;;5045682;28;20303;-65
2022/01/09 07:41:54;;;;;;;0.90;0.90;;;5.30;99.90;;;;;;5045544;28;20212;-66
2022/01/09 07:44:21;;;;;;;0.90;0.90;;;5.40;99.90;;;;;;5042736;28;20204;-66
2022/01/09 07:46:50;;;;;;;2.15;1.10;;;5.50;99.90;;;;;;5043060;28;20302;-64
2022/01/09 07:49:17;;;;;;;0.80;0.80;;;5.60;99.90;;;;;;5045659;28;20263;-66
2022/01/09 07:51:44;;;;;;;1.20;1.10;;;5.60;99.90;;;;;;5042421;28;20310;-65
2022/01/09 07:54:12;;;;;;;1.00;1.00;;;5.60;99.90;;;;;;5040634;28;20207;-65
2022/01/09 07:56:39;;;;;;;1.20;1.10;;;5.60;99.90;;;;;;5037269;28;20211;-66
2022/01/09 07:59:06;;;;;;;1.47;1.37;;;5.50;99.90;;;;;;5044046;28;20307;-64
2022/01/09 08:01:33;;;;;;;0.93;0.93;;;5.40;99.90;;;;;;5044141;28;20632;-65
2022/01/09 08:04:01;;;;;;;1.00;0.90;;;5.50;99.90;;;;;;5044285;28;20228;-65
2022/01/09 08:06:28;;;;;;;1.27;1.17;;;5.50;99.90;;;;;;5044952;28;20242;-66
2022/01/09 08:08:55;;;;;;;1.20;1.10;;;5.40;99.90;;;;;;5044065;28;20651;-66
2022/01/09 08:11:22;;;;;;;1.02;1.02;;;5.50;99.90;;;;;;5046030;28;20220;-64
2022/01/09 08:13:49;;;;;;;1.35;1.25;;;5.60;99.90;;;;;;5044254;28;20256;-66
2022/01/09 08:16:16;;;;;;;1.60;1.20;;;5.60;99.90;;;;;;5044959;28;20246;-65
2022/01/09 08:18:43;;;;;;;1.92;1.33;;;5.50;99.90;;;;;;5044105;28;20263;-66
2022/01/09 08:21:11;;;;;;;1.25;1.15;;;5.40;99.90;;;;;;5044722;28;20200;-66
2022/01/09 08:23:38;;;;;;;1.17;1.08;;;5.40;99.90;;;;;;5043529;28;20319;-66
2022/01/09 08:26:05;;;;;;;1.42;1.27;;;5.30;99.90;;;;;;5042186;28;20323;-65
2022/01/09 08:28:32;;;;;;;1.40;1.30;;;5.40;99.90;;;;;;5043326;28;20247;-67
2022/01/09 08:30:59;;;;;;;1.42;1.33;;;5.40;99.90;;;;;;5044793;28;20724;-64
2022/01/09 08:33:26;;;;;;;0.80;0.80;;;5.50;99.90;;;;;;5043658;28;20255;-66
2022/01/09 08:35:55;;;;;;;1.33;1.23;;;5.70;99.90;;;;;;5039544;28;20287;-65
2022/01/09 08:38:24;;;;;;;1.00;1.00;;;5.80;99.90;;;;;;5030091;28;20685;-66
2022/01/09 08:40:51;;;;;;;1.00;1.00;;;5.90;99.90;;;;;;5032004;28;20662;-65
2022/01/09 08:43:18;;;;;;;0.97;0.90;;;5.90;99.90;;;;;;5034199;28;20291;-65
2022/01/09 08:45:44;;;;;;;0.90;0.90;;;6.00;99.90;;;;;;5030021;28;20232;-67
2022/01/09 08:48:11;;;;;;;0.95;0.95;;;5.90;99.90;;;;;;5028287;28;20337;-65
2022/01/09 08:50:38;;;;;;;1.17;1.10;;;6.00;99.90;;;;;;5035624;28;20307;-65
2022/01/09 08:53:06;;;;;;;1.08;1.08;;;6.00;99.90;;;;;;5026328;28;20311;-66
2022/01/09 08:55:34;;;;;;;1.10;1.10;;;6.10;99.90;;;;;;5022024;28;20244;-65
2022/01/09 08:58:01;;;;;;;1.20;1.10;;;6.10;99.90;;;;;;5021751;28;20221;-65
2022/01/09 09:00:28;;;;;;;1.33;1.23;;;6.10;99.90;;;;;;5028313;28;20207;-64
2022/01/09 09:02:55;;;;;;;1.00;1.00;;;6.20;99.90;;;;;;5024130;28;20638;-64
2022/01/09 09:05:22;;;;;;;1.15;1.10;;;6.30;99.90;;;;;;5037287;28;20282;-65
2022/01/09 09:07:49;;;;;;;0.90;0.90;;;6.30;99.90;;;;;;5021668;28;20646;-65
2022/01/09 09:10:16;;;;;;;1.10;1.10;;;6.40;99.90;;;;;;5026065;28;20289;-66
2022/01/09 09:12:45;;;;;;;1.17;1.07;;;6.40;99.90;;;;;;5025160;28;20224;-65
2022/01/09 09:15:13;;;;;;;1.07;1.00;;;6.40;99.90;;;;;;5053126;28;20232;-65
2022/01/09 09:17:40;;;;;;;1.20;1.10;;;6.40;99.90;;;;;;5045914;28;20279;-66
2022/01/09 09:20:08;;;;;;;1.00;1.00;;;6.40;99.90;;;;;;5047189;28;20288;-65
2022/01/09 09:22:36;;;;;;;1.30;1.20;;;6.40;99.90;;;;;;5030443;28;20289;-65
2022/01/09 09:25:04;;;;;;;1.17;1.07;;;6.40;99.90;;;;;;5042935;28;20669;-64
2022/01/09 09:27:32;;;;;;;1.10;1.00;;;6.40;99.90;;;;;;5056622;28;20243;-65
2022/01/09 09:30:03;;;;;;;1.00;1.00;;;6.40;99.90;;;;;;5059523;28;20207;-65
2022/01/09 09:32:30;;;;;;;1.23;1.13;;;6.50;99.90;;;;;;5029134;28;20201;-66
2022/01/09 09:34:57;;;;;;;1.17;1.10;;;6.50;99.90;;;;;;5030610;28;20233;-64
2022/01/09 09:37:26;;;;;;;1.10;1.00;;;6.50;99.90;;;;;;5036276;28;20209;-64
2022/01/09 09:39:53;;;;;;;1.30;1.20;;;6.50;99.90;;;;;;5030713;28;20209;-64
2022/01/09 09:42:21;;;;;;;1.17;1.10;;;6.50;99.90;;;;;;5049301;28;20658;-66
2022/01/09 09:44:49;;;;;;;1.13;1.07;;;6.50;99.90;;;;;;5059451;28;20322;-64
2022/01/09 09:47:19;;;;;;;0.97;0.87;;;6.40;99.90;;;;;;5060242;28;20218;-65
2022/01/09 09:49:47;;;;;;;0.85;0.85;;;6.50;99.90;;;;;;5060662;28;20323;-66
2022/01/09 09:52:17;;;;;;;1.00;1.00;;;6.50;99.90;;;;;;5057450;28;20226;-64
2022/01/09 09:54:44;;;;;;;1.20;1.10;;;6.50;99.90;;;;;;5055805;28;20200;-64
2022/01/09 09:57:11;;;;;;;1.00;1.00;;;6.60;99.90;;;;;;5055065;28;20289;-64
2022/01/09 09:59:39;;;;;;;0.93;0.93;;;6.50;99.90;;;;;;5026960;28;20282;-65
2022/01/09 10:02:11;;;;;;;0.90;0.90;;;6.50;99.90;;;;;;5033113;28;20205;-65
2022/01/09 10:04:58;;;;;;;1.10;1.10;;;6.60;99.90;;;;;;5034551;28;20207;-64
2022/01/09 10:07:27;;;;;;;1.03;1.03;;;6.60;99.90;;;;;;5038715;28;20525;-63
2022/01/09 10:09:55;;;;;;;1.00;1.00;;;6.60;99.90;;;;;;5046814;28;20228;-64
2022/01/09 10:12:27;;;;;;;1.20;1.10;;;6.60;99.90;;;;;;5045693;28;20219;-64
2022/01/09 10:14:56;;;;;;;0.80;0.80;;;6.70;99.90;;;;;;5052721;28;20307;-63
2022/01/09 10:17:24;;;;;;;1.30;1.20;;;6.90;99.90;;;;;;5036382;28;20206;-64
2022/01/09 10:19:55;;;;;;;1.35;1.25;;;6.80;99.90;;;;;;5039371;28;20254;-64
2022/01/09 10:22:32;;;;;;;1.03;1.03;;;6.80;99.90;;;;;;5035392;28;20238;-65
2022/01/09 10:25:16;;;;;;;1.10;1.10;;;6.80;99.90;;;;;;5039300;28;20201;-65
2022/01/09 10:27:43;;;;;;;1.10;1.10;;;6.80;99.90;;;;;;5034542;28;20648;-64
2022/01/09 10:30:10;;;;;;;1.10;1.10;;;6.90;99.90;;;;;;5036764;28;20259;-65
2022/01/09 10:32:37;;;;;;;0.83;0.83;;;6.90;99.90;;;;;;5034221;28;20304;-65
2022/01/09 10:35:08;;;;;;;0.80;0.80;;;7.00;99.90;;;;;;5038149;28;20208;-65
2022/01/09 10:37:36;;;;;;;1.20;1.10;;;7.00;99.90;;;;;;5029427;28;20292;-65
2022/01/09 10:40:05;;;;;;;1.00;1.00;;;7.00;99.90;;;;;;5043406;28;20212;-65
2022/01/09 10:42:33;;;;;;;1.10;1.10;;;7.00;99.90;;;;;;5042586;28;20200;-64
2022/01/09 10:45:22;;;;;;;1.07;1.00;;;7.00;99.90;;;;;;5046089;28;20372;-65
2022/01/09 10:47:49;;;;;;;1.10;1.00;;;7.00;99.90;;;;;;5038205;28;20244;-65
2022/01/09 10:50:32;;;;;;;1.13;1.13;;;7.10;99.90;;;;;;5035282;28;20296;-64
2022/01/09 10:53:23;;;;;;;1.10;1.00;;;7.00;99.90;;;;;;5035741;28;20201;-65
2022/01/09 10:56:05;;;;;;;0.90;0.90;;;7.10;99.90;;;;;;5039329;28;20284;-65
2022/01/09 10:58:35;;;;;;;0.87;0.87;;;7.20;99.90;;;;;;5033782;28;20303;-66
2022/01/09 11:01:24;;;;;;;0.90;0.90;;;7.30;99.90;;;;;;5035220;28;20286;-65
2022/01/09 11:03:53;;;;;;;0.90;0.90;;;7.20;99.90;;;;;;5049693;28;20216;-64
2022/01/09 11:06:23;;;;;;;1.10;1.00;;;7.20;99.90;;;;;;5043137;28;20279;-65
2022/01/09 11:08:50;;;;;;;0.80;0.80;;;7.20;99.90;;;;;;5037047;28;20250;-66
2022/01/09 11:11:31;;;;;;;0.70;0.70;;;7.20;99.90;;;;;;5037397;28;20251;-65
2022/01/09 11:14:01;;;;;;;0.70;0.70;;;7.30;99.90;;;;;;5029238;28;20200;-65
2022/01/09 11:16:36;;;;;;;0.90;0.90;;;7.40;99.90;;;;;;5022369;28;20197;-66
2022/01/09 11:19:14;;;;;;;0.80;0.80;;;7.40;99.90;;;;;;5033080;28;20323;-65
2022/01/09 11:21:45;;;;;;;0.60;0.60;;;7.40;99.90;;;;;;5030816;28;20291;-64
2022/01/09 11:24:42;;;;;;;0.75;0.75;;;7.50;99.90;;;;;;5035831;28;20283;-65
2022/01/09 11:27:23;;;;;;;0.97;0.90;;;7.50;99.90;;;;;;5027691;28;20708;-65
2022/01/09 11:30:03;;;;;;;0.80;0.80;;;7.40;99.90;;;;;;5036001;28;20236;-65
2022/01/09 11:32:41;;;;;;;0.70;0.70;;;7.40;99.90;;;;;;5013468;28;20249;-66
2022/01/09 11:35:15;;;;;;;0.70;0.70;;;7.40;99.90;;;;;;5012319;28;20245;-65
2022/01/09 11:37:56;;;;;;;0.70;0.70;;;7.40;99.90;;;;;;5012897;28;20619;-65
2022/01/09 11:40:25;;;;;;;0.70;0.70;;;7.40;99.90;;;;;;5014606;28;20289;-63
2022/01/09 11:43:13;;;;;;;0.60;0.60;;;7.40;99.90;;;;;;5014537;28;20570;-65
2022/01/09 11:45:47;;;;;;;0.80;0.80;;;7.50;99.90;;;;;;5023977;28;20279;-66
2022/01/09 11:48:15;;;;;;;0.68;0.68;;;7.50;99.90;;;;;;5034835;28;20224;-66
2022/01/09 11:51:11;;;;;;;0.87;0.70;;;7.60;99.90;;;;;;5035992;28;20296;-65
2022/01/09 11:54:04;;;;;;;0.70;0.70;;;7.50;99.90;;;;;;5038264;28;20208;-66
2022/01/09 11:56:48;;;;;;;0.53;0.53;;;7.40;99.90;;;;;;5035166;28;20209;-65
2022/01/09 11:59:21;;;;;;;1.00;0.70;;;7.30;99.90;;;;;;5034949;28;20216;-65
2022/01/09 12:01:48;;;;;;;0.73;0.73;;;7.30;99.90;;;;;;5037496;28;20228;-67
2022/01/09 12:04:53;;;;;;;0.60;0.60;;;7.30;99.90;;;;;;5028889;28;20284;-65
2022/01/09 12:07:36;;;;;;;0.70;0.70;;;7.30;99.90;;;;;;5030371;28;20203;-64
2022/01/09 12:10:26;;;;;;;0.63;0.63;;;7.40;99.90;;;;;;5014173;28;20287;-64
2022/01/09 12:12:53;;;;;;;0.75;0.75;;;7.50;99.90;;;;;;5023833;28;20718;-64
2022/01/09 12:15:38;;;;;;;0.77;0.77;;;7.40;99.90;;;;;;5018741;28;20196;-64
2022/01/09 12:18:07;;;;;;;0.80;0.80;;;7.40;99.90;;;;;;5020295;28;20232;-66
2022/01/09 12:20:40;;;;;;;0.70;0.70;;;7.50;99.90;;;;;;5026396;28;20209;-65
2022/01/09 12:23:07;;;;;;;0.60;0.60;;;7.60;99.90;;;;;;5027695;28;20197;-65
2022/01/09 12:26:01;;;;;;;0.90;0.90;;;7.70;99.90;;;;;;5028528;28;20205;-65
2022/01/09 12:28:43;;;;;;;0.70;0.70;;;7.70;99.90;;;;;;5042880;28;20299;-66
2022/01/09 12:31:28;;;;;;;0.60;0.60;;;7.80;99.90;;;;;;5032214;28;20209;-64
2022/01/09 12:33:57;;;;;;;0.70;0.70;;;8.00;99.90;;;;;;5025740;28;20204;-66
2022/01/09 12:36:27;;;;;;;0.80;0.80;;;8.20;99.90;;;;;;5023191;28;20376;-67
2022/01/09 12:38:57;;;;;;;0.70;0.70;;;8.20;99.90;;;;;;5021550;28;20237;-64
2022/01/09 12:41:28;;;;;;;0.60;0.60;;;8.30;99.90;;;;;;5030126;28;20194;-64
2022/01/09 12:44:00;;;;;;;1.00;0.85;;;8.40;99.90;;;;;;5053280;28;20227;-65
2022/01/09 12:46:28;;;;;;;0.83;0.83;;;8.40;99.90;;;;;;5035075;28;20270;-67
2022/01/09 12:48:56;;;;;;;0.90;0.90;;;8.50;99.90;;;;;;5038296;28;20236;-65
2022/01/09 12:51:24;;;;;;;0.83;0.83;;;8.50;99.90;;;;;;5042410;28;20247;-65
2022/01/09 12:53:52;;;;;;;0.80;0.80;;;8.40;99.90;;;;;;5052873;28;20215;-65
2022/01/09 12:56:21;;;;;;;0.70;0.70;;;8.40;99.90;;;;;;5052604;28;20205;-66
2022/01/09 12:58:51;;;;;;;0.70;0.67;;;8.40;99.90;;;;;;5052590;28;20256;-65
2022/01/09 13:01:21;;;;;;;0.90;0.90;;;8.40;99.90;;;;;;5040764;28;20204;-65
2022/01/09 13:03:50;;;;;;;0.83;0.83;;;8.40;99.90;;;;;;5035989;28;20303;-65
2022/01/09 13:06:22;;;;;;;0.70;0.70;;;8.40;99.90;;;;;;5033237;28;20204;-66
2022/01/09 13:08:52;;;;;;;0.60;0.60;;;8.30;99.90;;;;;;5033290;28;20225;-67